Time;durP1;ratioP1;P1;durP2;ratioP2;P2;SDS_P1;SDS_P2;PMS_P1;PMS_P2;Temp;Humidity;BMP_temperature;BMP_pressure;BME280_temperature;BME280_humidity;BME280_pressure;Samples;Min_cycle;Max_cycle;Signal;HPM_P1;HPM_P2
2023/08/17 00:01:18;;;;;;;2.58;1.45;;;20.90;99.90;;;;;;6306633;28;20051;-82
2023/08/17 00:04:20;;;;;;;2.08;1.88;;;20.90;99.90;;;;;;6306295;28;20045;-82
2023/08/17 00:07:23;;;;;;;1.77;1.67;;;20.90;99.90;;;;;;6306362;28;20072;-81
2023/08/17 00:10:25;;;;;;;2.10;1.38;;;20.80;99.90;;;;;;6306918;28;20041;-82
2023/08/17 00:13:26;;;;;;;2.53;2.33;;;20.80;99.90;;;;;;6306632;28;20807;-81
2023/08/17 00:16:28;;;;;;;2.05;1.85;;;20.70;99.90;;;;;;6306437;28;20044;-82
2023/08/17 00:19:30;;;;;;;8.05;6.63;;;20.70;99.90;;;;;;6306778;28;20064;-81
2023/08/17 00:22:33;;;;;;;3.00;2.10;;;20.60;99.90;;;;;;6305629;28;20055;-82
2023/08/17 00:25:35;;;;;;;2.15;1.95;;;20.50;99.90;;;;;;6305729;28;20100;-82
2023/08/17 00:28:37;;;;;;;5.20;2.20;;;20.50;99.90;;;;;;6306877;28;20052;-81
2023/08/17 00:31:38;;;;;;;2.38;1.80;;;20.40;99.90;;;;;;6301558;28;20056;-81
2023/08/17 00:34:40;;;;;;;2.25;2.00;;;20.30;99.90;;;;;;6280781;28;20051;-82
2023/08/17 00:37:43;;;;;;;3.15;2.03;;;20.30;99.90;;;;;;6307747;28;20044;-81
2023/08/17 00:40:45;;;;;;;3.38;2.67;;;20.20;99.90;;;;;;6307551;28;20047;-82
2023/08/17 00:43:46;;;;;;;3.03;2.10;;;20.10;99.90;;;;;;6281075;28;20049;-80
2023/08/17 00:46:48;;;;;;;5.22;3.22;;;20.10;99.90;;;;;;6281749;28;20052;-81
2023/08/17 00:49:50;;;;;;;8.77;4.65;;;20.00;99.90;;;;;;6281206;28;20049;-82
2023/08/17 00:52:54;;;;;;;5.97;2.33;;;20.00;99.90;;;;;;6280011;28;20048;-80
2023/08/17 00:55:57;;;;;;;3.67;1.73;;;19.90;99.90;;;;;;6280460;28;20041;-82
2023/08/17 00:58:59;;;;;;;2.97;2.13;;;19.90;99.90;;;;;;6284735;28;20135;-83
2023/08/17 01:02:01;;;;;;;3.22;2.15;;;19.80;99.90;;;;;;6286091;28;20053;-82
2023/08/17 01:05:05;;;;;;;2.72;2.50;;;19.80;99.90;;;;;;6285655;28;20041;-82
2023/08/17 01:08:08;;;;;;;2.90;2.28;;;19.70;99.90;;;;;;6289133;28;20041;-81
2023/08/17 01:11:19;;;;;;;3.03;2.35;;;19.70;99.90;;;;;;6288486;28;20053;-82
2023/08/17 01:14:28;;;;;;;3.83;2.78;;;19.60;99.90;;;;;;6282374;28;20052;-83
2023/08/17 01:17:34;;;;;;;5.20;2.20;;;19.60;99.90;;;;;;6285939;28;20045;-83
2023/08/17 01:20:37;;;;;;;2.90;2.67;;;19.50;99.90;;;;;;6285041;28;20100;-81
2023/08/17 01:23:40;;;;;;;6.20;2.50;;;19.50;99.90;;;;;;6282470;28;20049;-82
2023/08/17 01:26:41;;;;;;;4.70;2.30;;;19.40;99.90;;;;;;6277853;28;20496;-81
2023/08/17 01:29:43;;;;;;;2.95;2.70;;;19.50;99.90;;;;;;6277206;28;20508;-83
2023/08/17 01:32:51;;;;;;;6.20;3.47;;;19.40;99.90;;;;;;6278026;28;20048;-83
2023/08/17 01:36:06;;;;;;;5.05;2.42;;;19.30;99.90;;;;;;6278630;28;20689;-83
2023/08/17 01:39:10;;;;;;;3.97;2.78;;;19.20;99.90;;;;;;6278382;28;20140;-84
2023/08/17 01:42:13;;;;;;;3.20;2.63;;;19.30;99.90;;;;;;6278788;28;20196;-82
2023/08/17 01:45:15;;;;;;;3.72;2.50;;;19.20;99.90;;;;;;6277886;28;20045;-83
2023/08/17 01:48:17;;;;;;;3.75;2.50;;;19.20;99.90;;;;;;6276853;28;20049;-83
2023/08/17 01:51:20;;;;;;;4.35;2.67;;;19.20;99.90;;;;;;6278240;28;20045;-83
2023/08/17 01:54:23;;;;;;;3.15;2.42;;;19.20;99.90;;;;;;6278534;28;20328;-83
2023/08/17 01:57:25;;;;;;;12.88;2.58;;;19.20;99.90;;;;;;6277511;28;20094;-82
2023/08/17 02:00:27;;;;;;;3.13;2.45;;;19.20;99.90;;;;;;6277425;28;20048;-83
2023/08/17 02:03:28;;;;;;;7.78;2.85;;;19.20;99.90;;;;;;6277537;28;20053;-83
2023/08/17 02:06:30;;;;;;;3.95;2.60;;;19.20;99.90;;;;;;6276287;28;20041;-83
2023/08/17 02:09:33;;;;;;;9.88;2.90;;;19.20;99.90;;;;;;6276130;28;20057;-83
2023/08/17 02:12:35;;;;;;;6.47;3.17;;;19.20;99.90;;;;;;6277666;28;20044;-83
2023/08/17 02:15:39;;;;;;;6.35;3.25;;;19.20;99.90;;;;;;6277615;28;20045;-83
2023/08/17 02:18:41;;;;;;;5.47;2.67;;;19.10;99.90;;;;;;6277187;28;20664;-82
2023/08/17 02:21:43;;;;;;;3.28;2.83;;;19.10;99.90;;;;;;6277214;28;20045;-82
2023/08/17 02:24:46;;;;;;;3.58;2.90;;;19.10;99.90;;;;;;6276782;28;20243;-83
2023/08/17 02:27:48;;;;;;;4.50;3.03;;;19.10;99.90;;;;;;6275943;28;20049;-84
2023/08/17 02:30:55;;;;;;;7.82;2.97;;;19.10;99.90;;;;;;6286968;28;20083;-83
2023/08/17 02:34:00;;;;;;;6.32;2.53;;;19.10;99.90;;;;;;6276766;28;20045;-82
2023/08/17 02:37:02;;;;;;;2.97;2.50;;;19.10;99.90;;;;;;6276146;28;20056;-83
2023/08/17 02:40:06;;;;;;;2.97;2.42;;;19.00;99.90;;;;;;6286522;28;20124;-81
2023/08/17 02:43:07;;;;;;;6.10;3.40;;;19.00;99.90;;;;;;6288676;28;20063;-81
2023/08/17 02:46:09;;;;;;;5.15;2.95;;;18.90;99.90;;;;;;6281510;28;20053;-83
2023/08/17 02:49:11;;;;;;;5.00;3.00;;;18.90;99.90;;;;;;6276610;28;20045;-83
2023/08/17 02:52:12;;;;;;;3.47;3.08;;;18.90;99.90;;;;;;6276607;28;20045;-84
2023/08/17 02:55:16;;;;;;;8.75;2.90;;;18.90;99.90;;;;;;6277849;28;20049;-83
2023/08/17 02:58:17;;;;;;;6.35;3.28;;;18.90;99.90;;;;;;6277575;28;20041;-84
2023/08/17 03:01:19;;;;;;;7.20;3.65;;;18.90;99.90;;;;;;6279397;28;20052;-81
2023/08/17 03:04:21;;;;;;;5.50;3.42;;;18.90;99.90;;;;;;6284015;28;20036;-82
2023/08/17 03:07:22;;;;;;;6.03;3.13;;;18.90;99.90;;;;;;6283368;28;20045;-82
2023/08/17 03:10:25;;;;;;;3.88;2.70;;;18.90;99.90;;;;;;6282524;28;20041;-82
2023/08/17 03:13:27;;;;;;;10.73;6.95;;;18.90;99.90;;;;;;6282999;28;20041;-82
2023/08/17 03:16:29;;;;;;;13.05;3.22;;;18.80;99.90;;;;;;6282385;28;20043;-83
2023/08/17 03:19:31;;;;;;;9.15;4.28;;;18.90;99.90;;;;;;6282301;28;20072;-82
2023/08/17 03:22:33;;;;;;;5.18;3.15;;;18.90;99.90;;;;;;6282492;28;20044;-81
2023/08/17 03:25:37;;;;;;;5.97;3.63;;;18.90;99.90;;;;;;6289006;28;20412;-82
2023/08/17 03:28:39;;;;;;;5.00;3.63;;;19.00;99.90;;;;;;6306035;28;20037;-82
2023/08/17 03:31:41;;;;;;;9.55;3.53;;;18.90;99.90;;;;;;6306807;28;20503;-81
2023/08/17 03:34:42;;;;;;;6.80;3.85;;;19.00;99.90;;;;;;6306764;28;20702;-81
2023/08/17 03:37:45;;;;;;;7.95;4.13;;;19.00;99.90;;;;;;6306682;28;20052;-81
2023/08/17 03:40:48;;;;;;;3.40;3.00;;;19.00;99.90;;;;;;6306967;28;20260;-81
2023/08/17 03:43:50;;;;;;;12.27;4.28;;;19.00;99.90;;;;;;6307223;28;20056;-82
2023/08/17 03:46:52;;;;;;;6.88;4.15;;;19.00;99.90;;;;;;6307344;28;20045;-81
2023/08/17 03:49:53;;;;;;;6.78;3.38;;;19.00;99.90;;;;;;6306803;28;20070;-82
2023/08/17 03:52:55;;;;;;;6.00;3.58;;;19.00;99.90;;;;;;6309638;28;20104;-80
2023/08/17 03:55:58;;;;;;;4.55;3.60;;;19.10;99.90;;;;;;6310968;28;20046;-81
2023/08/17 03:59:00;;;;;;;9.98;3.38;;;19.00;99.90;;;;;;6309246;28;20048;-83
2023/08/17 04:02:01;;;;;;;4.97;3.63;;;19.00;99.90;;;;;;6298695;28;20048;-82
2023/08/17 04:05:04;;;;;;;6.28;3.83;;;19.00;99.90;;;;;;6298952;28;20055;-82
2023/08/17 04:08:05;;;;;;;6.07;4.18;;;19.10;99.90;;;;;;6298933;28;20070;-83
2023/08/17 04:11:08;;;;;;;6.82;4.00;;;19.00;99.90;;;;;;6301100;28;20055;-82
2023/08/17 04:14:10;;;;;;;5.35;3.45;;;19.00;99.90;;;;;;6300246;28;20519;-82
2023/08/17 04:17:12;;;;;;;6.25;3.70;;;19.00;99.90;;;;;;6300083;28;20512;-82
2023/08/17 04:20:14;;;;;;;6.05;3.88;;;19.00;99.90;;;;;;6300582;28;20045;-83
2023/08/17 04:23:16;;;;;;;4.68;2.97;;;19.00;99.90;;;;;;6301694;28;20048;-83
2023/08/17 04:26:20;;;;;;;7.03;4.43;;;19.00;99.90;;;;;;6296671;28;20040;-81
2023/08/17 04:29:22;;;;;;;7.07;3.63;;;19.00;99.90;;;;;;6284451;28;20128;-83
2023/08/17 04:32:23;;;;;;;6.57;4.72;;;19.00;99.90;;;;;;6277364;28;20052;-82
2023/08/17 04:35:25;;;;;;;8.77;5.05;;;18.90;99.90;;;;;;6283532;28;20053;-83
2023/08/17 04:38:27;;;;;;;6.72;4.72;;;19.00;99.90;;;;;;6282575;28;20063;-83
2023/08/17 04:41:30;;;;;;;8.00;4.22;;;19.00;99.90;;;;;;6283023;28;20056;-83
2023/08/17 04:44:32;;;;;;;6.53;4.55;;;19.00;99.90;;;;;;6282075;28;20156;-82
2023/08/17 04:47:33;;;;;;;5.72;4.68;;;19.10;99.90;;;;;;6284377;28;20053;-83
2023/08/17 04:50:36;;;;;;;5.10;4.60;;;19.10;99.90;;;;;;6281579;28;20049;-83
2023/08/17 04:53:37;;;;;;;6.68;4.68;;;19.10;99.90;;;;;;6281568;28;20053;-83
2023/08/17 04:56:40;;;;;;;4.57;4.15;;;19.20;99.90;;;;;;6281161;28;20500;-83
2023/08/17 04:59:42;;;;;;;5.38;4.03;;;19.20;99.90;;;;;;6280430;28;20060;-82
2023/08/17 05:02:44;;;;;;;9.32;4.90;;;19.30;99.90;;;;;;6280803;28;20427;-82
2023/08/17 05:05:46;;;;;;;10.10;4.50;;;19.30;99.90;;;;;;6279502;28;20134;-83
2023/08/17 05:08:48;;;;;;;9.05;4.47;;;19.40;99.90;;;;;;6280040;28;20052;-83
2023/08/17 05:11:51;;;;;;;6.57;4.97;;;19.50;99.90;;;;;;6281221;28;20495;-83
2023/08/17 05:14:52;;;;;;;4.68;4.15;;;19.50;99.90;;;;;;6282732;28;20056;-83
2023/08/17 05:17:54;;;;;;;8.63;4.10;;;19.60;99.90;;;;;;6278967;28;20041;-83
2023/08/17 05:20:56;;;;;;;5.32;4.10;;;19.70;99.90;;;;;;6280652;28;20504;-84
2023/08/17 05:23:57;;;;;;;6.75;3.65;;;19.80;99.90;;;;;;6280363;28;20053;-83
2023/08/17 05:27:00;;;;;;;6.80;3.95;;;19.90;99.90;;;;;;6301059;28;20055;-83
2023/08/17 05:30:02;;;;;;;6.03;4.47;;;20.00;99.90;;;;;;6271097;28;20047;-83
2023/08/17 05:33:04;;;;;;;6.95;4.00;;;20.10;99.90;;;;;;6299498;28;20051;-83
2023/08/17 05:36:06;;;;;;;4.45;3.25;;;20.20;99.90;;;;;;6301616;28;20041;-84
2023/08/17 05:39:07;;;;;;;6.70;4.10;;;20.30;99.90;;;;;;6298397;28;20128;-83
2023/08/17 05:42:10;;;;;;;5.97;4.47;;;20.40;99.90;;;;;;6288427;28;20052;-83
2023/08/17 05:45:12;;;;;;;8.02;5.93;;;20.40;99.90;;;;;;6278003;28;20420;-82
2023/08/17 05:48:14;;;;;;;6.72;3.70;;;20.50;99.90;;;;;;6277844;28;20048;-83
2023/08/17 05:51:16;;;;;;;4.45;3.83;;;20.60;99.90;;;;;;6279705;28;20052;-83
2023/08/17 05:54:18;;;;;;;5.28;4.30;;;20.60;99.90;;;;;;6278542;28;20048;-83
2023/08/17 05:57:21;;;;;;;7.85;5.05;;;20.70;99.90;;;;;;6277592;28;20048;-84
2023/08/17 06:00:23;;;;;;;5.85;3.90;;;20.80;99.90;;;;;;6278088;28;20099;-83
2023/08/17 06:03:24;;;;;;;9.00;4.82;;;20.80;99.90;;;;;;6287277;28;20118;-83
2023/08/17 06:06:27;;;;;;;5.82;4.38;;;20.80;99.90;;;;;;6277223;28;20048;-82
2023/08/17 06:09:28;;;;;;;7.47;4.50;;;20.80;99.90;;;;;;6278965;28;20052;-83
2023/08/17 06:12:31;;;;;;;11.85;4.20;;;20.90;99.90;;;;;;6277916;28;20040;-84
2023/08/17 06:15:33;;;;;;;9.57;4.85;;;21.00;99.90;;;;;;6278261;28;20113;-82
2023/08/17 06:18:35;;;;;;;7.28;4.97;;;21.10;99.90;;;;;;6277249;28;20063;-83
2023/08/17 06:21:37;;;;;;;7.63;4.95;;;21.20;99.90;;;;;;6277676;28;20044;-82
2023/08/17 06:24:39;;;;;;;10.05;7.03;;;21.30;99.90;;;;;;6279871;28;20412;-83
2023/08/17 06:27:42;;;;;;;9.13;5.63;;;21.30;99.90;;;;;;6280153;28;20041;-82
2023/08/17 06:30:44;;;;;;;14.77;6.22;;;21.30;99.90;;;;;;6299709;28;20052;-82
2023/08/17 06:33:46;;;;;;;11.50;5.55;;;21.30;99.90;;;;;;6294592;28;20054;-83
2023/08/17 06:36:58;;;;;;;8.35;5.32;;;21.40;99.90;;;;;;6289725;28;20481;-83
2023/08/17 06:39:59;;;;;;;9.77;5.32;;;21.40;99.90;;;;;;6295320;28;20048;-82
2023/08/17 06:43:03;;;;;;;8.43;4.63;;;21.50;99.90;;;;;;6311939;28;20054;-84
2023/08/17 06:46:04;;;;;;;7.40;5.38;;;21.60;99.90;;;;;;6303015;28;20624;-84
2023/08/17 06:49:06;;;;;;;9.15;6.35;;;21.70;99.90;;;;;;6300629;28;20048;-81
2023/08/17 06:52:08;;;;;;;10.02;5.00;;;21.70;99.90;;;;;;6302752;28;20048;-83
2023/08/17 06:55:11;;;;;;;6.68;4.75;;;21.80;99.90;;;;;;6301543;28;20059;-83
2023/08/17 06:58:14;;;;;;;8.02;5.50;;;21.90;99.90;;;;;;6301059;28;20053;-83
2023/08/17 07:01:16;;;;;;;7.13;5.22;;;22.10;99.90;;;;;;6296206;28;20045;-83
2023/08/17 07:04:18;;;;;;;10.82;6.50;;;22.20;99.90;;;;;;6278481;28;20128;-82
2023/08/17 07:07:22;;;;;;;6.10;4.85;;;22.20;99.90;;;;;;6276581;28;20049;-81
2023/08/17 07:10:23;;;;;;;5.57;4.65;;;22.20;99.90;;;;;;6296260;28;20503;-83
2023/08/17 07:13:26;;;;;;;8.27;4.90;;;22.30;99.90;;;;;;6300621;28;20525;-82
2023/08/17 07:16:28;;;;;;;6.13;4.75;;;22.30;99.90;;;;;;6301634;28;20041;-82
2023/08/17 07:19:30;;;;;;;4.75;4.18;;;22.30;99.90;;;;;;6307369;28;20135;-82
2023/08/17 07:22:32;;;;;;;8.02;4.55;;;22.40;99.90;;;;;;6306133;28;20062;-81
2023/08/17 07:25:33;;;;;;;5.68;4.68;;;22.40;99.90;;;;;;6306641;28;20049;-82
2023/08/17 07:28:36;;;;;;;9.73;5.60;;;22.50;99.90;;;;;;6298622;28;20052;-82
2023/08/17 07:31:39;;;;;;;9.57;5.40;;;22.70;99.90;;;;;;6282413;28;20055;-82
2023/08/17 07:34:41;;;;;;;7.80;4.78;;;22.70;99.90;;;;;;6300798;28;20064;-82
2023/08/17 07:37:42;;;;;;;9.68;6.30;;;22.70;99.90;;;;;;6287340;28;20127;-82
2023/08/17 07:40:44;;;;;;;7.68;5.03;;;22.70;99.90;;;;;;6281257;28;20041;-83
2023/08/17 07:43:47;;;;;;;16.63;6.03;;;22.70;99.90;;;;;;6280901;28;20057;-81
2023/08/17 07:46:49;;;;;;;6.15;5.00;;;22.70;99.90;;;;;;6299263;28;20051;-81
2023/08/17 07:49:50;;;;;;;5.63;4.47;;;22.70;99.90;;;;;;6306350;28;20557;-82
2023/08/17 07:52:52;;;;;;;9.05;4.95;;;22.80;99.90;;;;;;6307200;28;20059;-82
2023/08/17 07:55:54;;;;;;;10.55;5.00;;;22.90;99.90;;;;;;6306969;28;20051;-85
2023/08/17 07:58:57;;;;;;;8.60;5.53;;;23.10;99.90;;;;;;6305855;28;20132;-85
2023/08/17 08:01:59;;;;;;;7.35;5.85;;;23.20;99.90;;;;;;6289684;28;20049;-83
2023/08/17 08:05:01;;;;;;;9.27;6.57;;;23.30;99.90;;;;;;6280781;28;20044;-83
2023/08/17 08:08:02;;;;;;;10.70;6.22;;;23.50;99.90;;;;;;6278976;28;20059;-83
2023/08/17 08:11:05;;;;;;;7.13;4.97;;;23.60;99.90;;;;;;6282001;28;20049;-83
2023/08/17 08:14:08;;;;;;;10.57;6.20;;;23.70;99.90;;;;;;6281409;28;20065;-86
2023/08/17 08:17:09;;;;;;;6.22;4.93;;;23.80;99.90;;;;;;6276859;28;20047;-85
2023/08/17 08:20:11;;;;;;;6.70;4.82;;;23.90;99.90;;;;;;6275193;28;20040;-82
2023/08/17 08:23:13;;;;;;;7.45;5.18;;;23.90;99.90;;;;;;6278195;28;20060;-85
2023/08/17 08:26:15;;;;;;;8.60;5.28;;;23.90;99.90;;;;;;6277485;28;20049;-84
2023/08/17 08:29:18;;;;;;;8.55;6.80;;;23.90;99.90;;;;;;6275827;28;20049;-86
2023/08/17 08:32:19;;;;;;;10.13;7.00;;;24.00;99.90;;;;;;6281363;28;20496;-85
2023/08/17 08:35:22;;;;;;;10.05;6.07;;;24.10;99.90;;;;;;6282188;28;20052;-86
2023/08/17 08:38:24;;;;;;;7.00;6.22;;;23.90;99.90;;;;;;6300692;28;20045;-85
2023/08/17 08:41:28;;;;;;;6.88;5.85;;;23.90;99.90;;;;;;6302142;28;20147;-84
2023/08/17 08:44:31;;;;;;;6.07;5.00;;;23.90;99.90;;;;;;6294444;28;20127;-85
2023/08/17 08:47:36;;;;;;;9.35;5.88;;;23.90;99.90;;;;;;6298008;28;20120;-86
2023/08/17 08:50:41;;;;;;;10.93;7.75;;;24.10;99.90;;;;;;6276015;28;20052;-86
2023/08/17 08:53:46;;;;;;;10.60;6.30;;;24.20;99.90;;;;;;6289499;28;20394;-85
2023/08/17 08:56:52;;;;;;;6.15;5.55;;;24.20;99.90;;;;;;6300873;28;20040;-86
2023/08/17 08:59:57;;;;;;;9.13;8.23;;;24.30;99.90;;;;;;6300032;28;20048;-87
2023/08/17 09:03:02;;;;;;;5.55;5.05;;;24.50;99.90;;;;;;6279842;28;20051;-84
2023/08/17 09:06:05;;;;;;;7.70;5.25;;;24.60;99.90;;;;;;6275397;28;20056;-85
2023/08/17 09:09:08;;;;;;;6.65;5.60;;;24.80;99.90;;;;;;6273864;28;20179;-85
2023/08/17 09:12:10;;;;;;;8.25;5.65;;;25.20;99.90;;;;;;6269191;28;20394;-85
2023/08/17 09:15:13;;;;;;;6.82;5.40;;;25.40;99.90;;;;;;6273917;28;20127;-86
2023/08/17 09:18:16;;;;;;;7.70;5.78;;;25.50;99.90;;;;;;6274934;28;20037;-86
2023/08/17 09:21:22;;;;;;;6.68;5.95;;;25.70;99.90;;;;;;6278939;28;20518;-86
2023/08/17 09:24:24;;;;;;;6.22;4.88;;;25.80;99.90;;;;;;6278536;28;20664;-86
2023/08/17 09:27:26;;;;;;;6.60;4.75;;;25.80;99.90;;;;;;6279252;28;20045;-86
2023/08/17 09:30:29;;;;;;;7.35;5.45;;;26.00;99.90;;;;;;6278921;28;20064;-86
2023/08/17 09:33:32;;;;;;;8.95;5.80;;;26.30;99.90;;;;;;6302669;28;20196;-86
2023/08/17 09:36:36;;;;;;;7.85;5.95;;;26.50;99.90;;;;;;6304265;28;20047;-86
2023/08/17 09:39:38;;;;;;;5.63;4.80;;;26.50;99.90;;;;;;6304879;28;20040;-86
2023/08/17 09:42:39;;;;;;;6.82;4.45;;;26.60;99.90;;;;;;6303889;28;20416;-86
2023/08/17 09:45:46;;;;;;;5.35;3.95;;;26.90;99.90;;;;;;6303078;28;20044;-86
2023/08/17 09:48:48;;;;;;;6.75;4.50;;;27.40;99.90;;;;;;6303240;28;20047;-86
2023/08/17 09:51:52;;;;;;;5.55;5.05;;;27.90;99.90;;;;;;6309252;28;20044;-82
2023/08/17 09:54:54;;;;;;;5.88;4.15;;;28.50;99.90;;;;;;6309159;28;20056;-85
2023/08/17 09:57:57;;;;;;;4.97;4.55;;;28.80;99.90;;;;;;6303442;28;20495;-84
2023/08/17 10:01:04;;;;;;;5.72;4.45;;;29.10;99.50;;;;;;6303507;28;20045;-84
2023/08/17 10:04:06;;;;;;;5.82;4.53;;;29.30;98.70;;;;;;6303277;28;20048;-84
2023/08/17 10:07:10;;;;;;;5.38;4.63;;;29.50;98.30;;;;;;6303859;28;20052;-84
2023/08/17 10:10:13;;;;;;;5.30;4.57;;;29.80;97.50;;;;;;6303367;28;20045;-84
2023/08/17 10:13:26;;;;;;;6.03;5.10;;;30.20;96.60;;;;;;6303757;28;20063;-84
2023/08/17 10:16:34;;;;;;;5.03;4.53;;;30.50;95.50;;;;;;6303870;28;20036;-84
2023/08/17 10:19:44;;;;;;;4.90;4.18;;;30.50;94.80;;;;;;6303077;28;20044;-85
2023/08/17 10:22:53;;;;;;;5.30;4.57;;;30.50;94.10;;;;;;6303784;28;20053;-83
2023/08/17 10:25:55;;;;;;;5.95;5.32;;;30.50;93.80;;;;;;6302873;28;20411;-85
2023/08/17 10:28:58;;;;;;;7.80;5.63;;;30.30;93.50;;;;;;6302140;28;20052;-84
2023/08/17 10:32:02;;;;;;;5.78;5.25;;;30.10;93.40;;;;;;6302546;28;20048;-85
2023/08/17 10:35:05;;;;;;;6.05;5.30;;;30.10;93.40;;;;;;6303022;28;20049;-85
2023/08/17 10:38:07;;;;;;;6.38;5.35;;;30.20;93.10;;;;;;6301706;28;20529;-84
2023/08/17 10:41:10;;;;;;;11.50;5.75;;;30.30;92.60;;;;;;6303031;28;20052;-84
2023/08/17 10:44:12;;;;;;;7.15;6.45;;;30.20;92.30;;;;;;6293182;28;20051;-83
2023/08/17 10:47:23;;;;;;;9.15;7.22;;;30.20;92.20;;;;;;6279553;28;20052;-84
2023/08/17 10:50:26;;;;;;;8.60;6.80;;;30.30;92.10;;;;;;6278035;28;20049;-84
2023/08/17 10:53:28;;;;;;;10.15;7.60;;;30.10;92.10;;;;;;6283267;28;20052;-84
2023/08/17 10:56:30;;;;;;;8.00;7.20;;;30.10;92.20;;;;;;6301917;28;20086;-84
2023/08/17 10:59:33;;;;;;;9.18;7.95;;;30.10;92.10;;;;;;6301976;28;20122;-84
2023/08/17 11:02:37;;;;;;;9.85;8.85;;;30.00;92.00;;;;;;6301771;28;20122;-84
2023/08/17 11:05:42;;;;;;;12.57;9.13;;;30.30;91.90;;;;;;6301801;28;20518;-84
2023/08/17 11:08:54;;;;;;;11.65;10.38;;;30.40;91.50;;;;;;6301396;28;20496;-84
2023/08/17 11:11:56;;;;;;;9.35;8.43;;;30.40;91.30;;;;;;6300397;28;20063;-84
2023/08/17 11:14:59;;;;;;;11.23;9.98;;;30.40;91.30;;;;;;6302473;28;20048;-85
2023/08/17 11:18:02;;;;;;;9.98;8.95;;;30.50;91.10;;;;;;6301276;28;20125;-85
2023/08/17 11:21:05;;;;;;;9.75;7.95;;;30.70;90.90;;;;;;6300940;28;20045;-84
2023/08/17 11:24:09;;;;;;;9.60;8.60;;;31.20;90.60;;;;;;6276767;28;20045;-85
2023/08/17 11:27:11;;;;;;;10.45;8.75;;;31.70;89.80;;;;;;6278750;28;20088;-85
2023/08/17 11:30:13;;;;;;;10.45;8.30;;;32.20;88.20;;;;;;6279646;28;20127;-85
2023/08/17 11:33:16;;;;;;;8.82;8.02;;;32.50;86.40;;;;;;6279066;28;20373;-84
2023/08/17 11:36:19;;;;;;;11.02;9.93;;;32.70;84.80;;;;;;6278324;28;20099;-83
2023/08/17 11:39:21;;;;;;;9.73;8.73;;;32.50;83.90;;;;;;6288380;28;20059;-84
2023/08/17 11:42:23;;;;;;;9.63;8.43;;;32.20;83.50;;;;;;6302362;28;20053;-84
2023/08/17 11:45:25;;;;;;;11.43;8.95;;;31.80;84.10;;;;;;6296971;28;20045;-84
2023/08/17 11:48:28;;;;;;;12.93;8.55;;;31.60;84.40;;;;;;6296714;28;20508;-84
2023/08/17 11:51:30;;;;;;;9.35;8.38;;;31.50;84.80;;;;;;6301915;28;20290;-85
2023/08/17 11:54:34;;;;;;;8.35;7.50;;;31.40;85.00;;;;;;6301008;28;20052;-84
2023/08/17 11:57:36;;;;;;;11.15;9.20;;;31.10;85.40;;;;;;6300633;28;20055;-84
2023/08/17 12:00:40;;;;;;;8.82;8.05;;;31.00;85.80;;;;;;6300972;28;20045;-84
2023/08/17 12:03:44;;;;;;;9.13;6.93;;;30.80;85.50;;;;;;6301204;28;20051;-84
2023/08/17 12:06:46;;;;;;;10.50;7.88;;;30.60;86.00;;;;;;6293606;28;20481;-85
2023/08/17 12:09:47;;;;;;;11.52;8.30;;;30.40;86.60;;;;;;6289169;28;20044;-85
2023/08/17 12:12:49;;;;;;;10.52;8.77;;;30.70;86.90;;;;;;6283777;28;20445;-84
2023/08/17 12:15:51;;;;;;;9.73;8.77;;;31.30;86.20;;;;;;6300598;28;20631;-84
2023/08/17 12:18:54;;;;;;;11.15;8.30;;;31.90;85.20;;;;;;6304531;28;20051;-85
2023/08/17 12:21:57;;;;;;;10.10;8.23;;;32.50;83.80;;;;;;6289844;28;20068;-84
2023/08/17 12:24:59;;;;;;;9.32;8.43;;;33.10;82.80;;;;;;6277452;28;20424;-84
2023/08/17 12:28:01;;;;;;;8.52;7.13;;;33.80;81.00;;;;;;6296074;28;20045;-83
2023/08/17 12:31:04;;;;;;;10.93;8.38;;;34.50;78.30;;;;;;6301961;28;20048;-83
2023/08/17 12:34:07;;;;;;;9.57;8.57;;;34.70;76.20;;;;;;6300816;28;20511;-83
2023/08/17 12:37:09;;;;;;;14.30;9.20;;;34.80;74.90;;;;;;6300511;28;20048;-83
2023/08/17 12:40:12;;;;;;;10.57;8.38;;;35.00;74.10;;;;;;6299106;28;20051;-83
2023/08/17 12:43:13;;;;;;;8.25;7.10;;;35.10;73.20;;;;;;6277863;28;20045;-84
2023/08/17 12:46:15;;;;;;;8.63;6.82;;;35.20;72.40;;;;;;6274456;28;20049;-82
2023/08/17 12:49:18;;;;;;;9.18;8.20;;;35.10;72.30;;;;;;6275727;28;20045;-84
2023/08/17 12:52:20;;;;;;;9.65;8.32;;;35.20;71.40;;;;;;6275196;28;20052;-84
2023/08/17 12:55:21;;;;;;;10.07;8.43;;;35.10;70.80;;;;;;6281261;28;20052;-84
2023/08/17 12:58:23;;;;;;;8.80;7.80;;;35.10;70.40;;;;;;6280653;28;20045;-84
2023/08/17 13:01:25;;;;;;;9.48;8.38;;;34.60;70.50;;;;;;6283357;28;20080;-85
2023/08/17 13:04:28;;;;;;;11.77;8.18;;;34.30;71.00;;;;;;6280712;28;20037;-84
2023/08/17 13:07:29;;;;;;;8.60;7.80;;;33.80;71.20;;;;;;6280163;28;20056;-85
2023/08/17 13:10:31;;;;;;;10.60;9.60;;;33.10;73.00;;;;;;6287096;28;20407;-86
2023/08/17 13:13:33;;;;;;;9.68;8.80;;;32.60;73.90;;;;;;6285772;28;20048;-86
2023/08/17 13:16:35;;;;;;;12.63;9.65;;;31.90;74.90;;;;;;6281016;28;20045;-86
2023/08/17 13:19:39;;;;;;;15.45;8.90;;;31.30;76.70;;;;;;6300106;28;20052;-86
2023/08/17 13:22:40;;;;;;;9.65;8.75;;;30.80;78.30;;;;;;6305146;28;20364;-85
2023/08/17 13:25:42;;;;;;;10.57;8.60;;;30.50;79.50;;;;;;6296466;28;20051;-86
2023/08/17 13:28:44;;;;;;;9.65;8.80;;;30.50;80.20;;;;;;6280371;28;20045;-85
2023/08/17 13:31:47;;;;;;;9.90;8.38;;;30.50;80.50;;;;;;6280381;28;20060;-85
2023/08/17 13:34:50;;;;;;;9.32;8.38;;;30.50;81.30;;;;;;6280961;28;20059;-84
2023/08/17 13:37:53;;;;;;;8.45;7.60;;;30.70;81.20;;;;;;6294616;28;20068;-85
2023/08/17 13:40:55;;;;;;;8.45;7.65;;;30.70;81.50;;;;;;6291626;28;20037;-83
2023/08/17 13:43:57;;;;;;;7.72;7.03;;;30.70;81.60;;;;;;6303707;28;20447;-84
2023/08/17 13:46:59;;;;;;;9.30;8.23;;;30.80;81.70;;;;;;6289625;28;20061;-83
2023/08/17 13:50:03;;;;;;;9.68;7.88;;;31.10;81.10;;;;;;6294795;28;20138;-84
2023/08/17 13:53:05;;;;;;;8.10;7.20;;;31.30;81.00;;;;;;6278711;28;20523;-84
2023/08/17 13:56:06;;;;;;;11.27;6.63;;;31.40;80.90;;;;;;6289058;28;20123;-84
2023/08/17 13:59:08;;;;;;;11.10;7.25;;;31.50;80.50;;;;;;6303241;28;20052;-83
2023/08/17 14:02:10;;;;;;;8.77;8.02;;;31.70;80.50;;;;;;6301910;28;20050;-84
2023/08/17 14:05:13;;;;;;;10.38;7.45;;;32.00;80.30;;;;;;6301438;28;20611;-83
2023/08/17 14:08:14;;;;;;;8.25;7.50;;;32.20;79.60;;;;;;6280466;28;20513;-82
2023/08/17 14:11:16;;;;;;;10.95;7.95;;;32.30;79.20;;;;;;6289753;28;20055;-83
2023/08/17 14:14:18;;;;;;;8.15;7.18;;;32.50;79.30;;;;;;6303041;28;20041;-84
2023/08/17 14:17:19;;;;;;;6.95;6.25;;;33.20;78.70;;;;;;6303001;28;20052;-84
2023/08/17 14:20:23;;;;;;;8.80;7.13;;;33.70;77.20;;;;;;6302579;28;20506;-83
2023/08/17 14:23:25;;;;;;;7.75;6.22;;;34.10;75.60;;;;;;6303236;28;20135;-83
2023/08/17 14:26:26;;;;;;;7.10;6.10;;;34.20;74.70;;;;;;6303639;28;20067;-85
2023/08/17 14:29:28;;;;;;;9.30;7.70;;;34.40;74.10;;;;;;6302845;28;20045;-84
2023/08/17 14:32:30;;;;;;;7.13;6.28;;;34.60;73.60;;;;;;6303758;28;20060;-85
2023/08/17 14:35:33;;;;;;;7.20;6.50;;;34.60;73.40;;;;;;6304930;28;20162;-83
2023/08/17 14:38:35;;;;;;;7.57;6.70;;;34.80;72.50;;;;;;6297246;28;20045;-84
2023/08/17 14:41:37;;;;;;;7.28;6.10;;;34.80;72.70;;;;;;6291837;28;20091;-82
2023/08/17 14:44:39;;;;;;;10.05;6.65;;;34.90;71.90;;;;;;6277598;28;20052;-85
2023/08/17 14:47:40;;;;;;;7.47;6.28;;;34.80;72.60;;;;;;6278482;28;20045;-84
2023/08/17 14:50:43;;;;;;;7.65;6.93;;;34.80;71.90;;;;;;6294003;28;20511;-83
2023/08/17 14:53:45;;;;;;;7.55;6.85;;;34.70;72.20;;;;;;6279030;28;20503;-84
2023/08/17 14:56:47;;;;;;;7.10;5.85;;;34.80;71.90;;;;;;6278088;28;20044;-85
2023/08/17 14:59:49;;;;;;;8.32;6.50;;;35.00;71.60;;;;;;6278096;28;20415;-85
2023/08/17 15:02:50;;;;;;;12.25;6.38;;;35.50;70.50;;;;;;6299416;28;20205;-83
2023/08/17 15:05:53;;;;;;;6.95;5.88;;;35.60;69.70;;;;;;6298828;28;20041;-82
2023/08/17 15:08:55;;;;;;;8.02;6.05;;;35.20;69.80;;;;;;6278999;28;20037;-84
2023/08/17 15:11:57;;;;;;;6.93;6.28;;;34.80;69.90;;;;;;6297973;28;20054;-84
2023/08/17 15:14:58;;;;;;;11.52;7.25;;;34.40;70.70;;;;;;6303794;28;20053;-84
2023/08/17 15:18:00;;;;;;;8.68;6.65;;;34.20;71.20;;;;;;6302323;28;20059;-85
2023/08/17 15:21:03;;;;;;;6.68;6.07;;;34.30;71.30;;;;;;6285430;28;20048;-84
2023/08/17 15:24:06;;;;;;;6.88;6.28;;;34.10;71.00;;;;;;6302505;28;20036;-83
2023/08/17 15:27:07;;;;;;;8.30;7.18;;;33.90;71.40;;;;;;6290194;28;20049;-83
2023/08/17 15:30:10;;;;;;;11.88;6.18;;;33.60;71.90;;;;;;6277273;28;20056;-83
2023/08/17 15:33:11;;;;;;;7.10;6.30;;;33.30;72.20;;;;;;6278789;28;20049;-84
2023/08/17 15:36:18;;;;;;;6.72;6.13;;;33.10;73.00;;;;;;6277888;28;20044;-85
2023/08/17 15:39:19;;;;;;;6.65;5.95;;;32.80;73.30;;;;;;6292296;28;20162;-83
2023/08/17 15:42:21;;;;;;;6.45;5.85;;;32.40;74.50;;;;;;6278894;28;20056;-85
2023/08/17 15:45:23;;;;;;;7.68;5.85;;;32.10;74.60;;;;;;6276145;28;20056;-83
2023/08/17 15:48:24;;;;;;;7.65;6.63;;;31.80;75.10;;;;;;6276742;28;20052;-85